KESWICK RESERVOIR (KES)

Elevation: 596' · SACRAMENTO R basin · Operator: US Bureau of Reclamation

Provisional data, subject to change.
Query executed Saturday at 17:15:01   clock

Select a sensor type for a plot of data.
Note: Reservoir Flows are daily averages.

Earlier

Date RES ELE    STORAGE    RES CHG    OUTFLOW    INFLOW   
 FEET   AF   AF   CFS   CFS  
01/08/2016 584.40 22137 19 3086 3096
01/09/2016 582.82 21176 -961 3078 2595
01/10/2016 581.87 20610 -566 3051 2767
01/11/2016 583.66 21684 1074 3064 3606
01/12/2016 584.74 22347 663 3065 3400
01/13/2016 585.46 22796 449 3068 3295
01/14/2016 585.28 22683 -113 3033 2977
01/15/2016 585.01 22513 -170 3088 3002
01/16/2016 582.55 21014 -1499 3120 2365
01/17/2016 581.41 20340 -674 3013 2673
01/18/2016 580.35 19726 -614 2994 2684
01/19/2016 582.40 20925 1199 2970 3574
01/20/2016 584.61 22266 1341 2981 3658
01/21/2016 584.45 22168 -98 2974 2926
01/22/2016 582.47 20967 -1201 2973 2368
01/23/2016 582.82 21176 209 2932 3037
01/24/2016 579.58 19288 -1888 2961 2010
01/25/2016 579.07 19001 -287 3045 2900
01/26/2016 580.84 20008 1007 3047 3556
01/27/2016 583.67 21690 1682 3046 3895
01/28/2016 583.87 21811 121 3046 3108
01/29/2016 583.70 21708 -103 3063 3011
01/30/2016 582.83 21182 -526 3044 2780
01/31/2016 581.44 20358 -824 2999 2585
02/01/2016 581.73 20528 170 2974 3063
02/02/2016 581.02 20112 -416 2973 2763
02/03/2016 582.03 20704 592 2970 3268
02/04/2016 580.64 19893 -811 2969 2560
02/05/2016 578.26 18554 -1339 2972 2298
02/06/2016 -- -- -- -- --

Later | Latest

Warning! This data is preliminary and subject to revision.

Show KES Map | Plot KES Data | 1 Month KES Data | Real-Time KES Data | KES Info